Time;durP1;ratioP1;P1;durP2;ratioP2;P2;SDS_P1;SDS_P2;PMS_P1;PMS_P2;Temp;Humidity;BMP_temperature;BMP_pressure;BME280_temperature;BME280_humidity;BME280_pressure;Samples;Min_cycle;Max_cycle;Signal;HPM_P1;HPM_P2
2023/03/14 00:01:59;;;;;;;31.52;5.75;;;;;;;-144.87;100.00;61487.56;4984828;28;20050;-77
2023/03/14 00:04:25;;;;;;;27.33;4.80;;;;;;;-144.87;100.00;61487.56;4981608;28;20080;-77
2023/03/14 00:06:51;;;;;;;27.98;5.50;;;;;;;-144.87;100.00;61487.56;4984319;28;20043;-76
2023/03/14 00:09:18;;;;;;;30.02;4.82;;;;;;;-144.87;100.00;61487.56;4986421;28;20030;-76
2023/03/14 00:11:44;;;;;;;24.02;4.32;;;;;;;-144.87;100.00;61487.56;4970157;28;20125;-75
2023/03/14 00:14:11;;;;;;;25.20;4.35;;;;;;;-144.87;100.00;61487.56;4983802;28;20034;-77
2023/03/14 00:16:37;;;;;;;24.52;4.18;;;;;;;-144.87;100.00;61487.56;4985001;28;20074;-76
2023/03/14 00:19:04;;;;;;;20.05;4.03;;;;;;;-144.87;100.00;61487.56;4982703;28;20041;-77
2023/03/14 00:21:30;;;;;;;20.08;3.22;;;;;;;-144.87;100.00;61487.56;4983733;28;20599;-75
2023/03/14 00:23:56;;;;;;;24.73;4.55;;;;;;;-144.87;100.00;61487.56;4987602;28;20108;-76
2023/03/14 00:26:22;;;;;;;24.20;4.22;;;;;;;-144.87;100.00;61487.56;4985253;28;20487;-75
2023/03/14 00:28:53;;;;;;;25.23;4.55;;;;;;;-144.87;100.00;61487.56;4979450;28;20100;-76
2023/03/14 00:31:19;;;;;;;30.52;5.60;;;;;;;-144.87;100.00;61487.56;4986130;28;20038;-80
2023/03/14 00:33:45;;;;;;;25.40;5.55;;;;;;;-144.87;100.00;61487.56;4982601;28;20066;-76
2023/03/14 00:36:20;;;;;;;28.30;5.43;;;;;;;-144.87;100.00;61487.56;4983157;28;20081;-76
2023/03/14 00:38:48;;;;;;;27.73;5.20;;;;;;;-144.87;100.00;61487.56;4984311;28;20034;-76
2023/03/14 00:41:18;;;;;;;31.77;6.22;;;;;;;-144.87;100.00;61487.56;4983342;28;20157;-76
2023/03/14 00:43:44;;;;;;;21.27;4.88;;;;;;;-144.87;100.00;61487.56;4986545;28;20064;-76
2023/03/14 00:46:11;;;;;;;26.30;4.80;;;;;;;-144.87;100.00;61487.56;4970004;28;20396;-77
2023/03/14 00:48:37;;;;;;;21.95;4.22;;;;;;;-144.87;100.00;61487.56;4966705;28;20029;-77
2023/03/14 00:51:04;;;;;;;19.90;3.65;;;;;;;-144.87;100.00;61487.56;4979952;28;20046;-77
2023/03/14 00:53:31;;;;;;;16.42;3.90;;;;;;;-144.87;100.00;61487.56;4966281;28;20081;-76
2023/03/14 00:56:01;;;;;;;15.20;3.45;;;;;;;-144.87;100.00;61487.56;4985972;28;20052;-76
2023/03/14 00:58:27;;;;;;;15.63;3.20;;;;;;;-144.87;100.00;61487.56;4969304;28;20023;-77
2023/03/14 01:00:54;;;;;;;20.70;3.90;;;;;;;-144.87;100.00;61487.56;4985430;28;20459;-77
2023/03/14 01:03:20;;;;;;;13.05;3.75;;;;;;;-144.87;100.00;61487.56;4979424;28;20069;-77
2023/03/14 01:05:46;;;;;;;16.40;3.03;;;;;;;-144.87;100.00;61487.56;5005295;28;20034;-77
2023/03/14 01:08:13;;;;;;;16.55;4.22;;;;;;;-144.87;100.00;61487.56;4988394;28;20043;-78
2023/03/14 01:10:40;;;;;;;17.65;4.32;;;;;;;-144.87;100.00;61487.56;4964052;28;20488;-76
2023/03/14 01:13:06;;;;;;;17.77;3.85;;;;;;;-144.87;100.00;61487.56;4972870;28;20034;-76
2023/03/14 01:15:34;;;;;;;20.02;4.05;;;;;;;-144.87;100.00;61487.56;4987941;28;20038;-78
2023/03/14 01:18:00;;;;;;;16.02;4.68;;;;;;;-144.87;100.00;61487.56;4982231;28;20504;-78
2023/03/14 01:20:27;;;;;;;14.32;4.15;;;;;;;-144.87;100.00;61487.56;4971950;28;20108;-76
2023/03/14 01:22:54;;;;;;;20.85;4.80;;;;;;;-144.87;100.00;61487.56;4971568;28;20093;-77
2023/03/14 01:25:20;;;;;;;24.33;4.80;;;;;;;-144.87;100.00;61487.56;4972850;28;20034;-78
2023/03/14 01:27:47;;;;;;;22.02;5.05;;;;;;;-144.87;100.00;61487.56;4988258;28;20034;-77
2023/03/14 01:30:14;;;;;;;20.10;4.50;;;;;;;-144.87;100.00;61487.56;4982450;28;20034;-76
2023/03/14 01:32:40;;;;;;;25.25;5.03;;;;;;;-144.87;100.00;61487.56;4989977;28;20136;-77
2023/03/14 01:35:07;;;;;;;26.85;5.28;;;;;;;-144.87;100.00;61487.56;4998790;28;20145;-77
2023/03/14 01:37:34;;;;;;;27.33;5.82;;;;;;;-144.87;100.00;61487.56;4987174;28;20049;-77
2023/03/14 01:40:00;;;;;;;25.90;6.38;;;;;;;-144.87;100.00;61487.56;4955711;28;20038;-75
2023/03/14 01:42:27;;;;;;;22.25;5.57;;;;;;;-144.87;100.00;61487.56;4986830;28;20046;-76
2023/03/14 01:44:56;;;;;;;22.92;4.68;;;;;;;-144.87;100.00;61487.56;4968685;28;20126;-77
2023/03/14 01:47:23;;;;;;;20.85;4.20;;;;;;;-144.87;100.00;61487.56;4972350;28;20038;-76
2023/03/14 02:00:17;;;;;;;28.02;4.57;;;;;;;-144.87;100.00;61487.56;4986221;28;20057;-78
2023/03/14 02:03:01;;;;;;;20.33;4.68;;;;;;;-144.87;100.00;61487.56;4969827;28;20062;-79
2023/03/14 02:05:34;;;;;;;22.42;4.22;;;;;;;-144.87;100.00;61487.56;4983298;28;20030;-77
2023/03/14 02:08:05;;;;;;;21.58;4.88;;;;;;;-144.87;100.00;61487.56;4975484;28;20180;-77
2023/03/14 02:10:46;;;;;;;23.85;4.93;;;;;;;-144.87;100.00;61487.56;4974342;28;20074;-77
2023/03/14 02:13:14;;;;;;;19.83;3.80;;;;;;;-144.87;100.00;61487.56;4972744;28;20038;-77
2023/03/14 02:29:15;;;;;;;20.75;4.07;;;;;;;-144.87;100.00;61487.56;4959753;28;20041;-77
2023/03/14 02:31:42;;;;;;;15.77;2.88;;;;;;;-144.87;100.00;61487.56;4947036;28;20039;-77
2023/03/14 02:34:09;;;;;;;16.60;2.80;;;;;;;-144.87;100.00;61487.56;4937537;28;20038;-76
2023/03/14 02:36:35;;;;;;;21.38;3.10;;;;;;;-144.87;100.00;61487.56;4968810;28;20086;-76
2023/03/14 02:39:11;;;;;;;16.75;2.83;;;;;;;-144.87;100.00;61487.56;4942812;28;20043;-76
2023/03/14 02:51:55;;;;;;;17.33;3.20;;;;;;;-144.87;100.00;61487.56;4980899;28;20668;-78
2023/03/14 02:54:22;;;;;;;11.90;3.25;;;;;;;-144.87;100.00;61487.56;4965391;28;20054;-76
2023/03/14 02:56:49;;;;;;;16.13;3.13;;;;;;;-144.87;100.00;61487.56;4973175;28;20043;-76
2023/03/14 02:59:15;;;;;;;14.65;3.35;;;;;;;-144.87;100.00;61487.56;4974490;28;20484;-77
2023/03/14 03:01:47;;;;;;;19.10;4.03;;;;;;;-144.87;100.00;61487.56;4958757;28;20125;-77
2023/03/14 03:04:13;;;;;;;17.38;3.30;;;;;;;-144.87;100.00;61487.56;4972866;28;20418;-76
2023/03/14 03:06:39;;;;;;;16.27;3.35;;;;;;;-144.87;100.00;61487.56;4989955;28;20030;-77
2023/03/14 03:09:07;;;;;;;13.18;3.05;;;;;;;-144.87;100.00;61487.56;4990821;28;20049;-78
2023/03/14 03:11:33;;;;;;;16.02;3.85;;;;;;;-144.87;100.00;61487.56;4923923;28;20039;-77
2023/03/14 03:14:01;;;;;;;15.95;3.67;;;;;;;-144.87;100.00;61487.56;4964124;28;20411;-78
2023/03/14 03:16:29;;;;;;;18.80;3.95;;;;;;;-144.87;100.00;61487.56;4974443;28;20034;-77
2023/03/14 03:18:57;;;;;;;20.10;4.43;;;;;;;-144.87;100.00;61487.56;4974057;28;20065;-78
2023/03/14 03:21:23;;;;;;;11.77;3.25;;;;;;;-144.87;100.00;61487.56;4971660;28;20049;-79
2023/03/14 03:23:50;;;;;;;21.25;4.07;;;;;;;-144.87;100.00;61487.56;4965604;28;20043;-77
2023/03/14 03:26:16;;;;;;;19.73;4.10;;;;;;;-144.87;100.00;61487.56;4967826;28;20200;-77
2023/03/14 03:28:42;;;;;;;17.30;4.10;;;;;;;-144.87;100.00;61487.56;4953763;28;20182;-78
2023/03/14 03:31:10;;;;;;;15.18;3.85;;;;;;;-144.87;100.00;61487.56;4929504;28;20031;-76
2023/03/14 03:33:38;;;;;;;19.67;4.70;;;;;;;-144.87;100.00;61487.56;4972308;28;20054;-78
2023/03/14 03:36:05;;;;;;;26.48;4.82;;;;;;;-144.87;100.00;61487.56;4957375;28;20063;-77
2023/03/14 03:38:35;;;;;;;22.60;4.10;;;;;;;-144.87;100.00;61487.56;4958121;28;20045;-78
2023/03/14 03:41:06;;;;;;;20.73;5.85;;;;;;;-144.87;100.00;61487.56;4941372;28;20061;-78
2023/03/14 03:43:32;;;;;;;22.15;3.92;;;;;;;-144.87;100.00;61487.56;4972977;28;20031;-77
2023/03/14 03:46:04;;;;;;;16.20;3.63;;;;;;;-144.87;100.00;61487.56;4969923;28;20086;-76
2023/03/14 03:48:31;;;;;;;17.30;3.33;;;;;;;-144.87;100.00;61487.56;4946944;28;20026;-77
2023/03/14 03:50:57;;;;;;;12.32;3.58;;;;;;;-144.87;100.00;61487.56;4956512;28;20054;-77
2023/03/14 03:53:24;;;;;;;17.30;3.33;;;;;;;-144.87;100.00;61487.56;4990131;28;20566;-78
2023/03/14 03:55:50;;;;;;;23.63;4.95;;;;;;;-144.87;100.00;61487.56;4973071;28;20035;-77
2023/03/14 03:58:19;;;;;;;22.40;3.97;;;;;;;-144.87;100.00;61487.56;4956859;28;20034;-78
2023/03/14 04:00:45;;;;;;;20.30;4.28;;;;;;;-144.87;100.00;61487.56;4979146;28;20038;-78
2023/03/14 04:03:12;;;;;;;21.10;3.72;;;;;;;-144.87;100.00;61487.56;4956142;28;20408;-77
2023/03/14 04:05:38;;;;;;;22.08;3.90;;;;;;;-144.87;100.00;61487.56;4970102;28;20048;-76
2023/03/14 04:08:08;;;;;;;21.13;3.60;;;;;;;-144.87;100.00;61487.56;4972980;28;20041;-78
2023/03/14 04:10:35;;;;;;;20.33;3.28;;;;;;;-144.87;100.00;61487.56;4939444;28;20504;-78
2023/03/14 04:13:06;;;;;;;21.23;3.92;;;;;;;-144.87;100.00;61487.56;4973029;28;20034;-77
2023/03/14 04:15:34;;;;;;;17.98;3.47;;;;;;;-144.87;100.00;61487.56;4990047;28;20093;-77
2023/03/14 04:18:06;;;;;;;17.65;3.92;;;;;;;-144.87;100.00;61487.56;4943166;28;20451;-77
2023/03/14 04:20:34;;;;;;;18.90;4.68;;;;;;;-144.87;100.00;61487.56;4972558;28;20061;-78
2023/03/14 04:23:01;;;;;;;16.85;3.40;;;;;;;-144.87;100.00;61487.56;4964392;28;20034;-76
2023/03/14 04:25:28;;;;;;;15.93;3.30;;;;;;;-144.87;100.00;61487.56;4978216;28;20063;-77
2023/03/14 04:27:57;;;;;;;19.80;3.75;;;;;;;-144.87;100.00;61487.56;4954219;28;20526;-77
2023/03/14 04:30:27;;;;;;;21.50;3.63;;;;;;;-144.87;100.00;61487.56;4971947;28;20038;-78
2023/03/14 04:32:57;;;;;;;20.25;4.70;;;;;;;-144.87;100.00;61487.56;4957730;28;20500;-77
2023/03/14 04:35:25;;;;;;;15.95;4.03;;;;;;;-144.87;100.00;61487.56;4968461;28;20046;-77
2023/03/14 04:37:59;;;;;;;15.13;3.63;;;;;;;-144.87;100.00;61487.56;4971083;28;20046;-78
2023/03/14 04:40:26;;;;;;;22.48;3.47;;;;;;;-144.87;100.00;61487.56;4976543;28;20125;-75
2023/03/14 04:42:56;;;;;;;17.10;3.78;;;;;;;-144.87;100.00;61487.56;4957108;28;20112;-77
2023/03/14 04:45:23;;;;;;;14.15;3.13;;;;;;;-144.87;100.00;61487.56;4979944;28;20113;-77
2023/03/14 04:47:49;;;;;;;13.85;3.50;;;;;;;-144.87;100.00;61487.56;4941043;28;20038;-77
2023/03/14 04:50:18;;;;;;;12.43;3.40;;;;;;;-144.87;100.00;61487.56;4976095;28;20586;-77
2023/03/14 04:52:45;;;;;;;18.80;3.25;;;;;;;-144.87;100.00;61487.56;4976883;28;20034;-79
2023/03/14 04:55:12;;;;;;;19.30;3.47;;;;;;;-144.87;100.00;61487.56;4959948;28;20046;-79
2023/03/14 04:57:39;;;;;;;20.60;3.08;;;;;;;-144.87;100.00;61487.56;4975799;28;20046;-78
2023/03/14 05:00:09;;;;;;;15.38;4.00;;;;;;;-144.87;100.00;61487.56;4975306;28;20030;-78
2023/03/14 05:03:02;;;;;;;12.82;3.30;;;;;;;-144.87;100.00;61487.56;4992154;28;20050;-77
2023/03/14 05:05:43;;;;;;;13.63;3.40;;;;;;;-144.87;100.00;61487.56;5001398;28;20046;-78
2023/03/14 05:08:35;;;;;;;17.95;3.70;;;;;;;-144.87;100.00;61487.56;4963188;28;20027;-79
2023/03/14 05:11:12;;;;;;;20.05;4.10;;;;;;;-144.87;100.00;61487.56;4991578;28;20097;-78
2023/03/14 05:14:02;;;;;;;14.65;3.92;;;;;;;-144.87;100.00;61487.56;4925542;28;20043;-77
2023/03/14 05:16:46;;;;;;;20.02;6.07;;;;;;;-144.87;100.00;61487.56;4974134;28;20109;-78
2023/03/14 05:19:45;;;;;;;19.95;5.38;;;;;;;-144.87;100.00;61487.56;4960863;28;20054;-76
2023/03/14 05:22:36;;;;;;;22.52;5.45;;;;;;;-144.87;100.00;61487.56;4973393;28;20078;-78
2023/03/14 05:25:02;;;;;;;19.55;4.85;;;;;;;-144.87;100.00;61487.56;4971475;28;20449;-78
2023/03/14 05:28:01;;;;;;;20.02;5.30;;;;;;;-144.87;100.00;61487.56;4965943;28;20034;-77
2023/03/14 05:30:55;;;;;;;14.85;4.57;;;;;;;-144.87;100.00;61487.56;4937466;28;20034;-77
2023/03/14 05:33:47;;;;;;;12.30;4.22;;;;;;;-144.87;100.00;61487.56;4972034;28;20046;-77
2023/03/14 05:36:34;;;;;;;19.08;5.88;;;;;;;-144.87;100.00;61487.56;4978340;28;20043;-77
2023/03/14 05:39:11;;;;;;;21.05;5.20;;;;;;;-144.87;100.00;61487.56;4959339;28;20035;-76
2023/03/14 05:41:46;;;;;;;21.23;6.88;;;;;;;-144.87;100.00;61487.56;4945162;28;20038;-76
2023/03/14 05:44:31;;;;;;;22.02;6.60;;;;;;;-144.87;100.00;61487.56;4976629;28;20109;-77
2023/03/14 05:47:00;;;;;;;23.00;6.93;;;;;;;-144.87;100.00;61487.56;4969144;28;20102;-77
2023/03/14 05:49:28;;;;;;;16.73;7.10;;;;;;;-144.87;100.00;61487.56;4975077;28;20031;-76
2023/03/14 05:52:10;;;;;;;15.82;6.65;;;;;;;-144.87;100.00;61487.56;4947735;28;20038;-76
2023/03/14 05:54:59;;;;;;;27.52;9.30;;;;;;;-144.87;100.00;61487.56;4955587;28;20516;-77
2023/03/14 05:57:49;;;;;;;17.80;7.63;;;;;;;-144.87;100.00;61487.56;4948845;28;20393;-75
2023/03/14 06:00:23;;;;;;;21.83;8.82;;;;;;;-144.87;100.00;61487.56;4972946;28;20069;-76
2023/03/14 06:03:00;;;;;;;24.70;9.32;;;;;;;-144.87;100.00;61487.56;4974697;28;20038;-77
2023/03/14 06:05:31;;;;;;;;;;;;;;;-144.87;100.00;61487.56;4960781;28;20041;-78
2023/03/14 06:08:01;;;;;;;23.42;9.20;;;;;;;-144.87;100.00;61487.56;4988763;28;19949;-78
2023/03/14 06:10:30;;;;;;;22.25;10.38;;;;;;;-144.87;100.00;61487.56;4966843;28;20526;-78
2023/03/14 06:12:56;;;;;;;18.92;8.32;;;;;;;-144.87;100.00;61487.56;4964180;28;20022;-77
2023/03/14 06:15:23;;;;;;;15.07;6.63;;;;;;;-144.87;100.00;61487.56;4943738;28;20073;-78
2023/03/14 06:17:53;;;;;;;12.75;6.43;;;;;;;-144.87;100.00;61487.56;4974044;28;20034;-79
2023/03/14 06:20:20;;;;;;;12.48;4.13;;;;;;;-144.87;100.00;61487.56;4972600;28;20033;-78
2023/03/14 06:22:46;;;;;;;11.57;3.55;;;;;;;-144.87;100.00;61487.56;4956177;28;20474;-78
2023/03/14 06:25:13;;;;;;;13.27;3.30;;;;;;;-144.87;100.00;61487.56;4959286;28;20081;-78
2023/03/14 06:27:40;;;;;;;11.23;2.28;;;;;;;-144.87;100.00;61487.56;4993331;28;20786;-78
2023/03/14 06:30:07;;;;;;;10.48;2.08;;;;;;;-144.87;100.00;61487.56;4962976;28;20052;-77
2023/03/14 06:32:33;;;;;;;7.32;1.48;;;;;;;-144.87;100.00;61487.56;4972212;28;20411;-77
2023/03/14 06:35:05;;;;;;;4.60;1.40;;;;;;;-144.87;100.00;61487.56;4956669;28;20122;-76
2023/03/14 06:37:35;;;;;;;4.35;1.40;;;;;;;-144.87;100.00;61487.56;4964114;28;20042;-77
2023/03/14 06:40:02;;;;;;;8.38;2.20;;;;;;;-144.87;100.00;61487.56;4953750;28;20520;-76
2023/03/14 06:42:48;;;;;;;8.07;2.22;;;;;;;-144.87;100.00;61487.56;4940368;28;20117;-79
2023/03/14 06:45:16;;;;;;;8.27;1.90;;;;;;;-144.87;100.00;61487.56;4941544;28;20122;-77
2023/03/14 06:47:43;;;;;;;10.70;2.60;;;;;;;-144.87;100.00;61487.56;4971020;28;20031;-78
2023/03/14 06:50:11;;;;;;;11.50;2.58;;;;;;;-144.87;100.00;61487.56;4953712;28;20504;-78
2023/03/14 06:52:41;;;;;;;8.30;2.20;;;;;;;-144.87;100.00;61487.56;4953435;28;20038;-78
2023/03/14 06:55:09;;;;;;;11.63;1.95;;;;;;;-144.87;100.00;61487.56;4984200;28;20046;-78
2023/03/14 06:57:36;;;;;;;7.85;2.10;;;;;;;-144.87;100.00;61487.56;4961751;28;20035;-77
2023/03/14 07:00:05;;;;;;;10.27;2.50;;;;;;;-144.87;100.00;61487.56;4950170;28;20034;-78
2023/03/14 07:02:31;;;;;;;7.10;2.20;;;;;;;-144.87;100.00;61487.56;4983113;28;20046;-77
2023/03/14 07:05:00;;;;;;;23.88;3.80;;;;;;;-144.87;100.00;61487.56;4955544;28;20037;-78
2023/03/14 07:07:27;;;;;;;12.73;2.60;;;;;;;-144.87;100.00;61487.56;4954775;28;20507;-77
2023/03/14 07:09:54;;;;;;;14.48;4.05;;;;;;;-144.87;100.00;61487.56;4954711;28;20041;-77
2023/03/14 07:12:20;;;;;;;9.75;2.80;;;;;;;-144.87;100.00;61487.56;4967359;28;20424;-78
2023/03/14 07:14:46;;;;;;;13.70;5.40;;;;;;;-144.87;100.00;61487.56;4955241;28;20034;-79
2023/03/14 07:17:12;;;;;;;12.48;2.42;;;;;;;-144.87;100.00;61487.56;4970720;28;20049;-77
2023/03/14 07:19:39;;;;;;;12.88;3.47;;;;;;;-144.87;100.00;61487.56;4964797;28;20053;-78
2023/03/14 07:22:07;;;;;;;11.90;3.28;;;;;;;-144.87;100.00;61487.56;4970235;28;20035;-78
2023/03/14 07:24:33;;;;;;;10.20;3.15;;;;;;;-144.87;100.00;61487.56;4959987;28;20039;-77
2023/03/14 07:27:00;;;;;;;15.20;3.10;;;;;;;-144.87;100.00;61487.56;4962010;28;20059;-78
2023/03/14 07:29:26;;;;;;;7.78;3.08;;;;;;;-144.87;100.00;61487.56;4957902;28;20510;-77
2023/03/14 07:31:53;;;;;;;5.70;1.85;;;;;;;-144.87;100.00;61487.56;4953219;28;20496;-78
2023/03/14 07:34:20;;;;;;;7.93;1.83;;;;;;;-144.87;100.00;61487.56;4972586;28;20046;-78
2023/03/14 07:36:47;;;;;;;7.22;2.58;;;;;;;-144.87;100.00;61487.56;4970370;28;20393;-77
2023/03/14 07:39:13;;;;;;;7.80;1.92;;;;;;;-144.87;100.00;61487.56;4972181;28;20046;-78
2023/03/14 07:42:00;;;;;;;11.68;2.67;;;;;;;-144.87;100.00;61487.56;4974093;28;20142;-77
2023/03/14 07:44:38;;;;;;;9.88;3.13;;;;;;;-144.87;100.00;61487.56;4984738;28;20511;-76
2023/03/14 07:47:04;;;;;;;14.15;3.10;;;;;;;-144.87;100.00;61487.56;4987330;28;20480;-76
2023/03/14 07:49:31;;;;;;;11.10;3.05;;;;;;;-144.87;100.00;61487.56;4985271;28;20117;-75
2023/03/14 07:51:58;;;;;;;7.47;2.15;;;;;;;-144.87;100.00;61487.56;4968912;28;20491;-77
2023/03/14 07:54:24;;;;;;;8.27;2.97;;;;;;;-144.87;100.00;61487.56;4959864;28;20102;-76
2023/03/14 07:56:54;;;;;;;8.43;3.25;;;;;;;-144.87;100.00;61487.56;4957017;28;20475;-76
2023/03/14 07:59:24;;;;;;;27.35;2.80;;;;;;;-144.87;100.00;61487.56;4986272;28;20153;-77
2023/03/14 08:01:50;;;;;;;13.02;2.17;;;;;;;-144.87;100.00;61487.56;4979665;28;20434;-77
2023/03/14 08:04:16;;;;;;;21.67;3.03;;;;;;;-144.87;100.00;61487.56;4953961;28;20110;-77
2023/03/14 08:06:43;;;;;;;12.40;2.28;;;;;;;-144.87;100.00;61487.56;4954989;28;20519;-76
2023/03/14 08:09:09;;;;;;;18.67;3.03;;;;;;;-144.87;100.00;61487.56;4989563;28;20034;-78
2023/03/14 08:11:35;;;;;;;15.88;2.53;;;;;;;-144.87;100.00;61487.56;4956715;28;20747;-77
2023/03/14 08:14:02;;;;;;;12.38;2.10;;;;;;;-144.87;100.00;61487.56;4989437;28;20057;-77
2023/03/14 08:16:28;;;;;;;14.52;1.70;;;;;;;-144.87;100.00;61487.56;4990402;28;20058;-77
2023/03/14 08:18:54;;;;;;;15.95;1.75;;;;;;;-144.87;100.00;61487.56;4990749;28;20038;-77
2023/03/14 08:21:20;;;;;;;8.60;1.27;;;;;;;-144.87;100.00;61487.56;4973345;28;20030;-77
2023/03/14 08:23:47;;;;;;;10.25;1.52;;;;;;;-144.87;100.00;61487.56;4971942;28;20062;-78
2023/03/14 08:26:13;;;;;;;15.82;2.45;;;;;;;-144.87;100.00;61487.56;4948827;28;20205;-78
2023/03/14 08:28:39;;;;;;;12.85;1.50;;;;;;;-144.87;100.00;61487.56;4971902;28;20056;-77
2023/03/14 08:31:06;;;;;;;6.15;1.20;;;;;;;-144.87;100.00;61487.56;4990229;28;20121;-77
2023/03/14 08:33:32;;;;;;;4.50;1.08;;;;;;;-144.87;100.00;61487.56;4989178;28;20509;-77
2023/03/14 08:36:00;;;;;;;5.47;1.50;;;;;;;-144.87;100.00;61487.56;4971611;28;20042;-77
2023/03/14 08:38:26;;;;;;;3.25;1.00;;;;;;;-144.87;100.00;61487.56;4972467;28;20122;-78
2023/03/14 08:41:03;;;;;;;5.35;1.50;;;;;;;-144.87;100.00;61487.56;4963260;28;20547;-76
2023/03/14 08:43:30;;;;;;;14.65;2.45;;;;;;;-144.87;100.00;61487.56;4964241;28;20475;-77
2023/03/14 08:46:01;;;;;;;7.90;1.20;;;;;;;-144.87;100.00;61487.56;4987292;28;20124;-77
2023/03/14 08:48:29;;;;;;;7.13;1.33;;;;;;;-144.87;100.00;61487.56;4937568;28;20455;-76
2023/03/14 08:51:08;;;;;;;10.35;1.30;;;;;;;-144.87;100.00;61487.56;4974346;28;20529;-76
2023/03/14 08:53:35;;;;;;;15.40;1.67;;;;;;;-144.87;100.00;61487.56;4964516;28;20117;-78
2023/03/14 08:56:01;;;;;;;14.35;2.35;;;;;;;-144.87;100.00;61487.56;4986514;28;20038;-77
2023/03/14 08:58:29;;;;;;;14.32;1.83;;;;;;;-144.87;100.00;61487.56;4984371;28;20046;-77
2023/03/14 09:00:55;;;;;;;12.55;2.25;;;;;;;-144.87;100.00;61487.56;4986278;28;20038;-77
2023/03/14 09:03:22;;;;;;;15.57;2.03;;;;;;;-144.87;100.00;61487.56;4954762;28;20378;-77
2023/03/14 09:05:50;;;;;;;13.57;2.35;;;;;;;-144.87;100.00;61487.56;4951425;28;20035;-77
2023/03/14 09:08:16;;;;;;;14.18;2.50;;;;;;;-144.87;100.00;61487.56;4990095;28;20038;-77
2023/03/14 09:10:42;;;;;;;19.30;2.40;;;;;;;-144.87;100.00;61487.56;4972098;28;20082;-77
2023/03/14 09:13:08;;;;;;;22.58;2.88;;;;;;;-144.87;100.00;61487.56;4967474;28;20042;-77
2023/03/14 09:15:35;;;;;;;20.33;2.72;;;;;;;-144.87;100.00;61487.56;4970800;28;20041;-77
2023/03/14 09:18:01;;;;;;;18.40;2.95;;;;;;;-144.87;100.00;61487.56;4983868;28;20053;-77
2023/03/14 09:20:28;;;;;;;14.10;2.88;;;;;;;-144.87;100.00;61487.56;4971665;28;20046;-76
2023/03/14 09:22:54;;;;;;;26.65;3.10;;;;;;;-144.87;100.00;61487.56;4988563;28;20115;-76
2023/03/14 09:25:20;;;;;;;20.48;2.90;;;;;;;-144.87;100.00;61487.56;4974121;28;20062;-77
2023/03/14 09:27:47;;;;;;;32.50;4.82;;;;;;;-144.87;100.00;61487.56;4955157;28;20038;-77
2023/03/14 09:30:13;;;;;;;25.02;3.50;;;;;;;-144.87;100.00;61487.56;4953636;28;20404;-77
2023/03/14 09:32:39;;;;;;;27.38;4.10;;;;;;;-144.87;100.00;61487.56;4990821;28;20046;-76
2023/03/14 09:35:06;;;;;;;23.00;5.00;;;;;;;-144.87;100.00;61487.56;4993236;28;20061;-76
2023/03/14 09:37:32;;;;;;;33.45;4.78;;;;;;;-144.87;100.00;61487.56;4971351;28;20081;-76
2023/03/14 09:39:58;;;;;;;28.33;2.83;;;;;;;-144.87;100.00;61487.56;4975009;28;20403;-77
2023/03/14 09:42:27;;;;;;;28.05;3.60;;;;;;;-144.87;100.00;61487.56;4989933;28;20077;-76
2023/03/14 09:45:02;;;;;;;23.15;3.53;;;;;;;-144.87;100.00;61487.56;4972452;28;20084;-76
2023/03/14 09:47:28;;;;;;;35.08;4.43;;;;;;;-144.87;100.00;61487.56;4991681;28;20053;-76
2023/03/14 09:49:54;;;;;;;26.95;3.03;;;;;;;-144.87;100.00;61487.56;4990866;28;20050;-76
2023/03/14 09:52:32;;;;;;;32.72;4.63;;;;;;;-144.87;100.00;61487.56;4974409;28;20042;-74
2023/03/14 09:55:04;;;;;;;26.55;4.15;;;;;;;-144.87;100.00;61487.56;4975799;28;20045;-77
2023/03/14 09:57:34;;;;;;;33.65;4.75;;;;;;;-144.87;100.00;61487.56;4991891;28;20062;-77
2023/03/14 10:00:33;;;;;;;40.33;5.32;;;;;;;-144.87;100.00;61487.56;4973305;28;20054;-77
2023/03/14 10:03:37;;;;;;;21.10;3.45;;;;;;;-144.87;100.00;61487.56;4989732;28;20034;-77
2023/03/14 10:06:11;;;;;;;27.20;4.43;;;;;;;-144.87;100.00;61487.56;4971510;28;20121;-77
2023/03/14 10:08:40;;;;;;;21.20;3.53;;;;;;;-144.87;100.00;61487.56;4973947;28;20027;-77
2023/03/14 10:11:10;;;;;;;45.10;3.95;;;;;;;-144.87;100.00;61487.56;4956715;28;20089;-76
2023/03/14 10:13:48;;;;;;;26.02;3.65;;;;;;;-144.87;100.00;61487.56;4960297;28;20034;-76
2023/03/14 10:16:15;;;;;;;25.50;4.18;;;;;;;-144.87;100.00;61487.56;4958427;28;20076;-77
2023/03/14 10:18:45;;;;;;;28.52;3.95;;;;;;;-144.87;100.00;61487.56;4991602;28;20492;-76
2023/03/14 10:21:23;;;;;;;43.92;5.32;;;;;;;-144.87;100.00;61487.56;4990309;28;20035;-77
2023/03/14 10:23:50;;;;;;;36.25;4.50;;;;;;;-144.87;100.00;61487.56;4958962;28;20042;-77
2023/03/14 10:26:35;;;;;;;22.52;4.32;;;;;;;-144.87;100.00;61487.56;4974713;28;20449;-77
2023/03/14 10:29:12;;;;;;;34.63;5.97;;;;;;;-144.87;100.00;61487.56;4974377;28;20089;-77
2023/03/14 10:31:53;;;;;;;26.52;3.97;;;;;;;-144.87;100.00;61487.56;4956957;28;20124;-77
2023/03/14 10:34:26;;;;;;;37.95;5.20;;;;;;;-144.87;100.00;61487.56;4974366;28;20034;-77
2023/03/14 10:37:17;;;;;;;27.40;4.78;;;;;;;-144.87;100.00;61487.56;4957915;28;20037;-76
2023/03/14 10:39:52;;;;;;;47.25;4.65;;;;;;;-144.87;100.00;61487.56;4992870;28;20069;-78
2023/03/14 10:42:28;;;;;;;35.03;3.90;;;;;;;-144.87;100.00;61487.56;4949071;28;20411;-76
2023/03/14 10:45:04;;;;;;;31.48;5.68;;;;;;;-144.87;100.00;61487.56;4972981;28;20392;-77
2023/03/14 10:47:30;;;;;;;34.85;5.97;;;;;;;-144.87;100.00;61487.56;4971885;28;20113;-76
2023/03/14 10:50:31;;;;;;;36.17;4.05;;;;;;;-144.87;100.00;61487.56;4990461;28;20135;-76
2023/03/14 10:53:05;;;;;;;33.95;5.03;;;;;;;-144.87;100.00;61487.56;4961717;28;20084;-77
2023/03/14 10:55:42;;;;;;;30.33;4.20;;;;;;;-144.87;100.00;61487.56;4990964;28;20423;-77
2023/03/14 10:58:26;;;;;;;43.80;6.20;;;;;;;-144.87;100.00;61487.56;4991236;28;20486;-76
2023/03/14 11:01:09;;;;;;;31.55;4.80;;;;;;;-144.87;100.00;61487.56;4973441;28;20058;-76
2023/03/14 11:03:37;;;;;;;31.50;4.03;;;;;;;-144.87;100.00;61487.56;4973703;28;20039;-77
2023/03/14 11:06:24;;;;;;;46.33;6.25;;;;;;;-144.87;100.00;61487.56;4958829;28;20070;-76
2023/03/14 11:09:07;;;;;;;30.52;4.20;;;;;;;-144.87;100.00;61487.56;4952474;28;20117;-77
2023/03/14 11:11:33;;;;;;;22.70;4.25;;;;;;;-144.87;100.00;61487.56;4973368;28;20070;-76
2023/03/14 11:14:15;;;;;;;30.25;4.88;;;;;;;-144.87;100.00;61487.56;4941858;28;20069;-77
2023/03/14 11:17:00;;;;;;;29.73;4.00;;;;;;;-144.87;100.00;61487.56;4990979;28;20496;-78
2023/03/14 11:19:36;;;;;;;26.05;3.30;;;;;;;-144.87;100.00;61487.56;4957385;28;20026;-76
2023/03/14 11:22:11;;;;;;;20.13;4.80;;;;;;;-144.87;100.00;61487.56;4978341;28;20030;-77
2023/03/14 11:24:43;;;;;;;23.13;4.50;;;;;;;-144.87;100.00;61487.56;4968482;28;20034;-77
2023/03/14 11:27:26;;;;;;;28.38;3.50;;;;;;;-144.87;100.00;61487.56;4989634;28;20038;-78
2023/03/14 11:30:25;;;;;;;16.05;2.83;;;;;;;-144.87;100.00;61487.56;4962539;28;20034;-77
2023/03/14 11:33:07;;;;;;;20.90;3.03;;;;;;;-144.87;100.00;61487.56;4985342;28;20483;-76
2023/03/14 11:35:47;;;;;;;30.00;5.38;;;;;;;-144.87;100.00;61487.56;4951836;28;20026;-78
2023/03/14 11:38:15;;;;;;;17.67;2.90;;;;;;;-144.87;100.00;61487.56;4970204;28;20081;-77
2023/03/14 11:40:42;;;;;;;15.63;2.60;;;;;;;-144.87;100.00;61487.56;4984724;28;20053;-76
2023/03/14 11:43:38;;;;;;;20.05;3.25;;;;;;;-144.87;100.00;61487.56;4947625;28;20254;-76
2023/03/14 11:46:10;;;;;;;17.05;3.15;;;;;;;-144.87;100.00;61487.56;4983670;28;20034;-76
2023/03/14 11:48:56;;;;;;;17.95;2.85;;;;;;;-144.87;100.00;61487.56;4961917;28;20041;-77
2023/03/14 11:51:36;;;;;;;9.63;2.47;;;;;;;-144.87;100.00;61487.56;4947735;28;20195;-78
2023/03/14 11:54:18;;;;;;;11.25;2.58;;;;;;;-144.87;100.00;61487.56;4981318;28;20546;-77